Time;durP1;ratioP1;P1;durP2;ratioP2;P2;SDS_P1;SDS_P2;PMS_P1;PMS_P2;Temp;Humidity;BMP_temperature;BMP_pressure;BME280_temperature;BME280_humidity;BME280_pressure;Samples;Min_cycle;Max_cycle;Signal;HPM_P1;HPM_P2
2022/09/05 00:02:00;;;;;;;;;10.00;10.00;;;;;20.65;72.35;100297.34;5019632;28;45641;-68
2022/09/05 00:04:25;;;;;;;;;8.33;7.33;;;;;20.57;72.47;100294.78;5019376;28;45739;-68
2022/09/05 00:07:21;;;;;;;;;10.33;10.33;;;;;20.51;72.92;100284.22;5019102;28;45858;-68
2022/09/05 00:09:49;;;;;;;;;8.67;8.33;;;;;20.50;73.29;100289.59;5019564;28;45237;-68
2022/09/05 00:12:17;;;;;;;;;10.33;10.33;;;;;20.48;73.06;100286.09;5019209;28;45390;-69
2022/09/05 00:15:11;;;;;;;;;9.67;9.00;;;;;20.47;73.12;100285.19;5003254;28;45441;-69
2022/09/05 00:18:12;;;;;;;;;10.67;9.00;;;;;20.42;73.31;100273.78;5017190;28;45418;-69
2022/09/05 00:20:59;;;;;;;;;9.67;9.00;;;;;20.49;73.04;100285.16;5004725;28;45428;-68
2022/09/05 00:23:51;;;;;;;;;12.00;11.67;;;;;20.38;73.34;100280.03;5034717;28;45615;-68
2022/09/05 00:26:34;;;;;;;;;10.33;9.00;;;;;20.35;73.23;100272.09;4980909;28;46044;-69
2022/09/05 00:29:31;;;;;;;;;11.33;11.33;;;;;20.22;73.08;100272.28;5018233;28;45297;-68
2022/09/05 00:32:05;;;;;;;;;11.33;10.67;;;;;20.30;72.69;100277.50;5018591;28;45446;-68
2022/09/05 00:35:07;;;;;;;;;10.00;9.00;;;;;20.30;72.88;100280.13;5018926;28;45433;-68
2022/09/05 00:37:37;;;;;;;;;14.00;10.33;;;;;20.29;73.11;100281.03;5017379;28;48020;-69
2022/09/05 00:40:28;;;;;;;;;11.67;11.00;;;;;20.28;73.15;100273.97;5018281;28;45467;-69
2022/09/05 00:43:05;;;;;;;;;9.33;9.00;;;;;20.16;72.65;100261.78;5018754;28;45556;-69
2022/09/05 00:45:42;;;;;;;;;9.00;8.00;;;;;20.19;73.16;100282.06;5017640;28;45549;-68
2022/09/05 00:48:29;;;;;;;;;12.00;9.00;;;;;20.13;73.27;100271.53;5018898;28;45411;-73
2022/09/05 00:51:23;;;;;;;;;8.67;8.00;;;;;20.13;73.46;100272.41;5017923;28;45384;-73
2022/09/05 00:54:17;;;;;;;;;9.67;9.67;;;;;20.09;73.33;100273.34;5017846;28;45373;-72
2022/09/05 00:57:19;;;;;;;;;9.67;9.33;;;;;19.99;73.71;100280.53;5018595;28;45510;-72
2022/09/05 01:00:14;;;;;;;;;12.00;11.67;;;;;19.79;73.79;100267.53;5018888;28;46061;-73
2022/09/05 01:03:14;;;;;;;;;11.00;10.33;;;;;19.74;74.47;100287.06;5018992;28;45343;-69
2022/09/05 01:05:39;;;;;;;;;11.00;9.67;;;;;19.74;74.32;100295.03;5018401;28;45469;-68
2022/09/05 01:09:02;;;;;;;;;11.00;10.00;;;;;19.64;75.22;100297.72;5018698;28;45413;-69
2022/09/05 01:11:50;;;;;;;;;12.00;11.33;;;;;19.56;75.00;100302.25;4976557;28;46366;-68
2022/09/05 01:14:18;;;;;;;;;12.00;10.67;;;;;19.59;74.27;100296.88;4976152;28;45543;-68
2022/09/05 01:16:53;;;;;;;;;8.67;8.33;;;;;19.61;74.42;100299.53;5002974;28;45489;-69
2022/09/05 01:19:50;;;;;;;;;11.33;10.67;;;;;19.52;75.14;100289.94;5018221;28;45435;-68
2022/09/05 01:22:43;;;;;;;;;12.67;12.00;;;;;19.63;75.67;100305.69;5006493;28;45778;-68
2022/09/05 01:25:26;;;;;;;;;12.67;12.00;;;;;19.65;75.02;100307.41;5032917;28;45250;-68
2022/09/05 01:28:07;;;;;;;;;12.67;12.00;;;;;19.67;74.62;100310.94;5018382;28;45480;-68
2022/09/05 01:30:41;;;;;;;;;9.67;9.67;;;;;19.65;74.55;100307.41;5018266;28;45913;-69
2022/09/05 01:33:24;;;;;;;;;8.00;8.00;;;;;19.65;74.99;100304.78;5017155;28;45616;-68
2022/09/05 01:36:11;;;;;;;;;11.67;10.67;;;;;19.66;74.78;100308.31;5033662;28;45525;-69
2022/09/05 01:39:05;;;;;;;;;12.33;11.00;;;;;19.65;74.53;100301.25;5002063;28;45494;-68
2022/09/05 01:41:51;;;;;;;;;12.33;11.33;;;;;19.66;73.95;100298.59;4995634;28;45612;-69
2022/09/05 01:44:25;;;;;;;;;10.67;10.67;;;;;19.64;74.60;100303.03;5003485;28;46287;-68
2022/09/05 01:47:34;;;;;;;;;12.00;11.00;;;;;19.65;74.38;100298.59;5018291;28;45424;-69
2022/09/05 01:50:16;;;;;;;;;11.00;10.33;;;;;19.64;73.88;100297.72;5016610;28;45490;-69
2022/09/05 01:53:04;;;;;;;;;10.33;9.33;;;;;19.40;73.90;100252.97;5017788;28;45431;-69
2022/09/05 01:55:56;;;;;;;;;14.00;9.50;;;;;19.59;73.94;100288.94;5018073;28;46398;-69
2022/09/05 01:58:49;;;;;;;;;11.00;9.33;;;;;19.57;73.43;100296.03;5017598;28;45636;-68
2022/09/05 02:01:27;;;;;;;;;9.33;8.00;;;;;19.49;73.87;100279.34;5017591;28;45549;-68
2022/09/05 02:04:17;;;;;;;;;12.00;10.67;;;;;19.50;73.83;100291.72;5017866;28;45422;-69
2022/09/05 02:07:18;;;;;;;;;9.67;9.67;;;;;19.38;73.51;100270.66;5029103;28;46419;-68
2022/09/05 02:10:17;;;;;;;;;10.00;9.00;;;;;19.52;73.91;100291.66;4997750;28;45415;-68
2022/09/05 02:13:05;;;;;;;;;10.00;9.33;;;;;19.51;73.56;100293.44;4998029;28;45405;-68
2022/09/05 02:15:43;;;;;;;;;10.33;10.33;;;;;19.46;73.55;100284.69;4993147;28;45567;-68
2022/09/05 02:18:21;;;;;;;;;6.33;5.67;;;;;19.18;74.15;100258.50;5016636;28;46269;-74
2022/09/05 02:20:55;;;;;;;;;12.00;12.00;;;;;18.84;74.55;100229.69;5015982;28;45517;-69
2022/09/05 02:23:34;;;;;;;;;8.33;8.33;;;;;19.12;74.41;100289.44;5016361;28;45501;-69
2022/09/05 02:26:06;;;;;;;;;10.67;10.00;;;;;19.02;74.47;100289.53;5017343;28;45582;-69
2022/09/05 02:28:53;;;;;;;;;11.00;11.00;;;;;18.87;75.23;100287.00;5016834;28;45506;-69
2022/09/05 02:31:26;;;;;;;;;10.67;10.67;;;;;18.69;75.15;100275.63;5016188;28;45301;-69
2022/09/05 02:34:30;;;;;;;;;12.33;11.67;;;;;18.67;75.68;100290.63;5032945;28;45391;-73
2022/09/05 02:37:18;;;;;;;;;10.67;10.00;;;;;18.65;75.27;100294.19;5017596;28;45955;-70
2022/09/05 02:40:14;;;;;;;;;10.33;10.33;;;;;18.60;75.91;100296.88;5015666;28;45594;-70
2022/09/05 02:42:59;;;;;;;;;10.67;10.67;;;;;18.47;76.39;100284.63;5016819;28;45382;-70
2022/09/05 02:45:56;;;;;;;;;12.00;11.00;;;;;18.39;76.96;100275.88;5013103;28;45570;-72
2022/09/05 02:48:45;;;;;;;;;12.33;10.67;;;;;18.40;76.57;100270.56;5017386;28;45602;-69
2022/09/05 02:51:31;;;;;;;;;12.33;10.67;;;;;18.43;76.92;100272.31;5015436;28;46470;-68
2022/09/05 02:54:02;;;;;;;;;13.00;10.67;;;;;18.44;76.35;100269.66;5016469;28;45455;-68
2022/09/05 02:56:51;;;;;;;;;8.33;8.33;;;;;18.56;76.00;100284.56;5016458;28;45401;-68
2022/09/05 02:59:38;;;;;;;;;10.67;10.67;;;;;18.58;76.02;100287.19;4990742;28;45749;-68
2022/09/05 03:02:30;;;;;;;;;8.67;8.67;;;;;18.52;76.00;100274.88;5016691;28;46018;-68
2022/09/05 03:05:07;;;;;;;;;10.67;10.67;;;;;18.58;76.29;100288.09;5016302;28;45507;-68
2022/09/05 03:07:54;;;;;;;;;10.00;9.67;;;;;18.60;75.90;100282.75;5022444;28;45521;-68
2022/09/05 03:10:52;;;;;;;;;10.67;10.67;;;;;18.64;75.63;100281.84;5015675;28;46051;-68
2022/09/05 03:13:20;;;;;;;;;10.33;9.67;;;;;18.66;75.44;100286.25;4979706;28;48139;-69
2022/09/05 03:16:13;;;;;;;;;10.67;10.00;;;;;18.63;75.43;100282.75;5016270;28;45458;-68
2022/09/05 03:18:59;;;;;;;;;10.33;10.33;;;;;18.62;75.14;100280.97;5002806;28;45567;-68
2022/09/05 03:21:57;;;;;;;;;9.67;7.00;;;;;18.61;75.51;100279.25;5015869;28;45453;-69
2022/09/05 03:25:00;;;;;;;;;10.67;10.67;;;;;18.61;75.70;100281.88;4980657;28;45508;-70
2022/09/05 03:28:03;;;;;;;;;11.00;9.67;;;;;18.61;75.49;100287.19;5014906;28;45494;-68
2022/09/05 03:31:04;;;;;;;;;10.33;10.00;;;;;18.58;74.73;100276.59;5016080;28;45429;-74
2022/09/05 03:34:04;;;;;;;;;10.33;10.00;;;;;18.60;74.73;100277.47;4999091;28;45498;-69
2022/09/05 03:37:08;;;;;;;;;10.67;9.67;;;;;18.60;74.85;100282.75;4982735;28;46291;-67
2022/09/05 03:39:45;;;;;;;;;11.33;11.33;;;;;18.58;75.44;100279.25;5017226;28;45494;-68
2022/09/05 03:42:44;;;;;;;;;11.33;10.67;;;;;18.37;75.81;100261.78;5017592;28;45546;-67
2022/09/05 03:45:16;;;;;;;;;12.00;11.00;;;;;18.35;75.88;100272.34;5018208;28;46294;-68
2022/09/05 03:48:11;;;;;;;;;12.33;10.67;;;;;18.33;75.96;100276.78;5015970;28;46102;-68
2022/09/05 03:51:07;;;;;;;;;12.00;11.00;;;;;18.25;76.11;100254.78;5015428;28;45483;-69
2022/09/05 03:53:54;;;;;;;;;11.33;11.00;;;;;18.37;76.04;100267.06;5015782;28;45456;-68
2022/09/05 03:56:37;;;;;;;;;12.67;11.00;;;;;18.42;76.00;100270.53;5016037;28;45446;-69
2022/09/05 03:59:24;;;;;;;;;10.67;10.67;;;;;18.44;75.61;100274.03;5039886;28;46881;-68
2022/09/05 04:02:01;;;;;;;;;10.00;10.00;;;;;18.46;75.87;100273.16;5017041;28;45395;-69
2022/09/05 04:04:37;;;;;;;;;13.33;11.33;;;;;18.36;75.35;100250.28;5016696;28;45553;-70
2022/09/05 04:07:08;;;;;;;;;10.67;10.00;;;;;18.35;75.64;100253.84;5016388;28;45361;-72
2022/09/05 04:10:08;;;;;;;;;11.00;11.00;;;;;18.47;75.47;100272.25;5018179;28;45462;-69
2022/09/05 04:12:38;;;;;;;;;11.00;10.67;;;;;18.32;75.04;100243.28;4966924;28;45377;-70
2022/09/05 04:15:31;;;;;;;;;11.67;11.33;;;;;17.98;74.72;100200.31;5017913;28;45479;-71
2022/09/05 04:18:00;;;;;;;;;10.67;10.33;;;;;18.29;74.69;100254.75;4993743;28;45292;-71
2022/09/05 04:21:00;;;;;;;;;11.00;11.00;;;;;18.39;74.65;100267.94;4999481;28;45547;-69
2022/09/05 04:23:47;;;;;;;;;11.67;11.33;;;;;18.31;75.11;100267.97;4999645;28;45330;-69
2022/09/05 04:26:39;;;;;;;;;12.67;12.00;;;;;18.20;75.14;100248.63;4999750;28;45464;-68
2022/09/05 04:29:23;;;;;;;;;10.67;10.33;;;;;18.32;75.59;100272.34;4999630;28;45229;-69
2022/09/05 04:32:01;;;;;;;;;12.33;11.00;;;;;18.20;75.84;100267.16;4999802;28;45700;-68
2022/09/05 04:34:41;;;;;;;;;10.33;9.33;;;;;18.17;75.69;100262.78;4999653;28;45407;-74
2022/09/05 04:37:09;;;;;;;;;11.00;10.00;;;;;18.04;76.15;100248.72;4999478;28;45270;-70
2022/09/05 04:39:35;;;;;;;;;11.00;11.00;;;;;18.09;75.51;100252.22;4999574;28;45458;-73
2022/09/05 04:42:04;;;;;;;;;10.00;10.00;;;;;18.22;75.77;100257.44;4999248;28;45301;-70
2022/09/05 04:44:51;;;;;;;;;15.00;14.00;;;;;18.25;75.64;100257.44;4998723;28;45465;-70
2022/09/05 04:47:45;;;;;;;;;8.67;7.33;;;;;18.25;75.54;100260.94;4999597;28;45443;-71
2022/09/05 04:50:18;;;;;;;;;14.67;13.67;;;;;18.20;75.49;100243.34;4999583;28;45662;-69
2022/09/05 04:52:56;;;;;;;;;12.67;11.67;;;;;18.33;75.23;100263.56;4999303;28;46134;-72
2022/09/05 04:55:35;;;;;;;;;11.67;11.67;;;;;18.32;75.03;100253.84;5014853;28;45476;-70
2022/09/05 04:58:36;;;;;;;;;10.67;10.33;;;;;18.34;75.33;100253.84;5017791;28;45471;-70
2022/09/05 05:01:14;;;;;;;;;11.00;11.00;;;;;18.29;74.97;100232.72;5012415;28;45418;-69
2022/09/05 05:03:42;;;;;;;;;12.00;11.00;;;;;18.35;74.91;100251.19;5017665;28;45515;-69
2022/09/05 05:06:19;;;;;;;;;16.00;14.00;;;;;18.35;74.71;100235.34;5018576;28;45389;-71
2022/09/05 05:08:47;;;;;;;;;13.33;13.33;;;;;18.39;74.35;100244.13;5018861;28;45599;-72
2022/09/05 05:11:44;;;;;;;;;13.00;12.33;;;;;18.35;74.94;100245.03;5018680;28;45651;-71
2022/09/05 05:14:12;;;;;;;;;12.00;9.67;;;;;18.33;74.82;100244.19;5018547;28;46034;-69
2022/09/05 05:16:45;;;;;;;;;6.00;6.00;;;;;18.21;74.74;100224.84;5018740;28;45470;-72
2022/09/05 05:19:37;;;;;;;;;12.00;10.67;;;;;18.33;74.81;100244.19;5018673;28;45538;-72
2022/09/05 05:22:05;;;;;;;;;12.33;11.67;;;;;18.25;74.64;100226.59;5017454;28;45662;-69
2022/09/05 05:24:34;;;;;;;;;12.00;12.00;;;;;18.34;74.58;100236.19;5017919;28;46260;-70
2022/09/05 05:27:21;;;;;;;;;10.33;10.00;;;;;18.34;74.25;100224.75;5018427;28;45428;-70
2022/09/05 05:29:50;;;;;;;;;10.33;8.67;;;;;18.48;74.25;100249.34;5018352;28;45585;-71
2022/09/05 05:32:22;;;;;;;;;12.00;10.33;;;;;18.52;73.81;100260.78;5033972;28;45515;-69
2022/09/05 05:35:03;;;;;;;;;11.00;11.00;;;;;18.40;73.92;100243.22;5018448;28;45384;-69
2022/09/05 05:37:40;;;;;;;;;12.00;11.00;;;;;18.55;73.87;100266.06;5018035;28;45438;-73
2022/09/05 05:40:18;;;;;;;;;12.00;11.00;;;;;18.56;73.74;100258.13;5015481;28;45700;-71
2022/09/05 05:42:45;;;;;;;;;10.33;10.33;;;;;18.58;74.27;100263.38;5017382;28;45482;-69
2022/09/05 05:45:26;;;;;;;;;14.33;12.67;;;;;18.59;74.31;100262.50;5016437;28;45472;-68
2022/09/05 05:48:03;;;;;;;;;11.67;11.67;;;;;18.61;74.61;100258.06;5014641;28;45329;-68
2022/09/05 05:50:51;;;;;;;;;10.33;10.33;;;;;18.59;74.80;100257.22;5014052;28;45383;-69
2022/09/05 05:53:37;;;;;;;;;11.33;9.67;;;;;18.60;74.46;100270.44;5017953;28;45504;-68
2022/09/05 05:56:37;;;;;;;;;13.33;12.33;;;;;18.66;74.44;100262.44;5011982;28;45887;-67
2022/09/05 05:59:32;;;;;;;;;12.67;10.67;;;;;18.76;74.03;100265.91;5014785;28;45386;-68
2022/09/05 06:02:29;;;;;;;;;12.00;11.67;;;;;18.86;73.89;100262.31;5029825;28;45541;-68
2022/09/05 06:05:22;;;;;;;;;10.33;10.33;;;;;18.97;73.89;100259.56;5014986;28;45443;-68
2022/09/05 06:08:16;;;;;;;;;10.33;9.67;;;;;19.07;73.68;100260.34;5013109;28;46150;-68
2022/09/05 06:11:39;;;;;;;;;11.33;10.67;;;;;19.21;73.26;100273.47;5036228;28;45434;-68
2022/09/05 06:14:10;;;;;;;;;16.00;12.33;;;;;19.33;72.79;100269.81;4952460;28;45735;-68
2022/09/05 06:17:16;;;;;;;;;13.00;12.00;;;;;19.42;72.32;100277.69;4956604;28;45553;-68
2022/09/05 06:20:19;;;;;;;;;13.67;12.67;;;;;19.50;72.16;100280.22;4997355;28;47189;-68
2022/09/05 06:23:07;;;;;;;;;11.67;9.67;;;;;19.61;72.19;100273.03;5014957;28;45368;-68
2022/09/05 06:25:38;;;;;;;;;15.00;12.00;;;;;19.67;71.50;100271.19;5014844;28;45778;-69
2022/09/05 06:28:17;;;;;;;;;11.00;11.00;;;;;19.64;71.56;100257.13;5012569;28;45517;-71
2022/09/05 06:31:09;;;;;;;;;11.67;11.67;;;;;19.67;72.00;100265.00;5011751;28;46200;-70
2022/09/05 06:34:03;;;;;;;;;12.00;11.00;;;;;19.76;72.04;100259.66;5011181;28;45435;-72
2022/09/05 06:37:02;;;;;;;;;13.00;11.33;;;;;19.81;71.41;100259.56;5012990;28;45500;-68
2022/09/05 06:39:51;;;;;;;;;13.33;11.00;;;;;19.97;71.16;100261.13;5013213;28;45454;-70
2022/09/05 06:42:39;;;;;;;;;12.67;11.67;;;;;20.18;71.17;100275.00;5039163;28;48028;-71
2022/09/05 06:45:12;;;;;;;;;9.33;9.33;;;;;20.07;70.78;100224.75;5013052;28;45504;-68
2022/09/05 06:47:43;;;;;;;;;11.33;10.00;;;;;22.21;68.57;100261.66;5014948;28;45485;-69
2022/09/05 06:50:17;;;;;;;;;9.33;9.00;;;;;25.66;58.52;100256.03;5014825;28;45501;-68
2022/09/05 06:53:27;;;;;;;;;9.00;8.67;;;;;28.17;50.97;100258.03;5012564;28;45492;-69
2022/09/05 06:56:18;;;;;;;;;7.00;7.00;;;;;30.28;45.36;100257.94;5014997;28;45447;-69
2022/09/05 06:59:12;;;;;;;;;9.00;8.00;;;;;31.87;43.88;100262.00;5010868;28;46115;-69
2022/09/05 07:02:10;;;;;;;;;6.67;6.67;;;;;33.51;38.38;100246.66;5012465;28;45337;-68
2022/09/05 07:04:45;;;;;;;;;8.67;7.67;;;;;34.45;38.20;100265.16;4980731;28;46161;-69
2022/09/05 07:07:29;;;;;;;;;9.33;8.00;;;;;35.55;36.05;100257.69;5014221;28;45367;-69
2022/09/05 07:10:12;;;;;;;;;7.67;7.00;;;;;36.56;34.60;100240.44;5015516;28;45391;-70
2022/09/05 07:12:48;;;;;;;;;8.33;8.33;;;;;37.54;31.89;100259.25;5014065;28;45458;-68
2022/09/05 07:15:26;;;;;;;;;7.67;7.33;;;;;38.17;31.43;100250.97;5011897;28;45752;-68
2022/09/05 07:18:08;;;;;;;;;7.67;7.33;;;;;38.83;30.70;100254.94;5012630;28;45523;-69
2022/09/05 07:20:52;;;;;;;;;7.00;6.67;;;;;39.83;29.35;100263.72;5013484;28;45940;-69
2022/09/05 07:23:35;;;;;;;;;7.00;7.00;;;;;40.50;28.96;100256.19;5014330;28;45455;-69
2022/09/05 07:26:02;;;;;;;;;10.67;9.67;;;;;40.89;27.08;100255.91;5014165;28;46588;-69
2022/09/05 07:28:29;;;;;;;;;6.67;6.67;;;;;41.28;26.91;100242.69;5009275;28;45407;-74
2022/09/05 07:31:21;;;;;;;;;7.00;6.00;;;;;41.93;27.17;100252.34;5009143;28;45315;-70
2022/09/05 07:33:48;;;;;;;;;4.67;4.33;;;;;42.61;26.96;100243.13;5013273;28;45688;-73
2022/09/05 07:36:19;;;;;;;;;5.67;5.67;;;;;43.09;25.78;100259.81;5013961;28;46227;-72
2022/09/05 07:38:49;;;;;;;;;4.67;4.67;;;;;43.54;24.77;100252.06;5015281;28;45708;-71
2022/09/05 07:41:18;;;;;;;;;6.00;6.00;;;;;44.12;24.50;100259.09;5015809;28;45447;-73
2022/09/05 07:43:48;;;;;;;;;6.00;6.00;;;;;44.76;23.57;100252.53;5015380;28;45779;-70
2022/09/05 07:46:31;;;;;;;;;7.00;5.00;;;;;45.31;24.05;100245.88;5015229;28;45335;-70
2022/09/05 07:49:05;;;;;;;;;7.33;6.00;;;;;46.01;22.80;100247.31;5015166;28;45795;-70
2022/09/05 07:51:34;;;;;;;;;5.67;5.67;;;;;46.40;22.34;100245.22;5014004;28;45491;-70
2022/09/05 07:54:18;;;;;;;;;8.00;7.00;;;;;46.94;21.52;100252.16;5015090;28;45589;-70
2022/09/05 07:56:52;;;;;;;;;7.33;5.00;;;;;47.47;20.58;100252.59;5010279;28;46548;-71
2022/09/05 07:59:21;;;;;;;;;7.67;6.00;;;;;47.81;21.03;100248.13;5011176;28;45486;-69
2022/09/05 08:01:51;;;;;;;;;5.00;5.00;;;;;47.93;20.80;100232.69;5014063;28;45432;-68
2022/09/05 08:04:31;;;;;;;;;13.67;13.00;;;;;48.29;20.14;100234.34;5000397;28;45432;-70
2022/09/05 08:07:05;;;;;;;;;6.33;6.00;;;;;48.71;19.81;100226.75;5014542;28;45451;-73
2022/09/05 08:09:36;;;;;;;;;7.33;6.67;;;;;49.17;19.26;100231.44;5014330;28;45371;-70
2022/09/05 08:12:12;;;;;;;;;5.00;4.67;;;;;49.63;19.76;100224.13;5014689;28;45413;-71
2022/09/05 08:15:00;;;;;;;;;6.67;6.33;;;;;49.91;18.16;100232.13;5014999;28;45467;-70
2022/09/05 08:17:26;;;;;;;;;3.00;3.00;;;;;50.23;19.24;100220.25;5014880;28;46123;-70
2022/09/05 08:20:16;;;;;;;;;5.00;5.00;;;;;50.53;18.46;100240.81;5017297;28;45474;-69
2022/09/05 08:22:48;;;;;;;;;5.33;4.67;;;;;50.34;17.98;100231.50;5017336;28;45531;-70
2022/09/05 08:25:19;;;;;;;;;8.00;6.00;;;;;50.34;18.20;100220.41;5018663;28;45510;-70
2022/09/05 08:28:09;;;;;;;;;6.33;5.33;;;;;50.53;17.98;100234.41;5017969;28;45544;-70
2022/09/05 08:30:43;;;;;;;;;6.00;5.67;;;;;50.84;17.79;100238.25;5010596;28;45333;-69
2022/09/05 08:33:20;;;;;;;;;7.00;7.00;;;;;50.60;18.22;100217.66;5016839;28;45393;-69
2022/09/05 08:35:53;;;;;;;;;6.33;5.33;;;;;50.63;18.55;100223.63;5018113;28;45233;-70
2022/09/05 08:38:19;;;;;;;;;5.67;5.00;;;;;50.44;18.56;100233.84;5003224;28;45943;-70
2022/09/05 08:40:56;;;;;;;;;6.00;6.00;;;;;49.88;17.80;100220.63;5016036;28;45280;-70
2022/09/05 08:43:35;;;;;;;;;6.00;6.00;;;;;49.34;18.41;100212.41;5017725;28;45394;-71
2022/09/05 08:46:19;;;;;;;;;6.33;5.67;;;;;49.08;18.46;100221.63;5017400;28;45462;-70
2022/09/05 08:49:13;;;;;;;;;6.67;5.67;;;;;49.03;19.22;100218.66;5015567;28;46735;-70
2022/09/05 08:51:55;;;;;;;;;5.00;5.00;;;;;48.86;19.64;100222.91;5017225;28;45705;-71
2022/09/05 08:54:31;;;;;;;;;5.67;4.67;;;;;48.65;19.45;100224.84;5015419;28;45517;-70
2022/09/05 08:57:18;;;;;;;;;5.00;5.00;;;;;48.52;19.40;100216.47;5013077;28;45400;-70
2022/09/05 08:59:53;;;;;;;;;6.00;6.00;;;;;48.25;19.58;100219.13;5012952;28;45598;-70
2022/09/05 09:02:46;;;;;;;;;7.33;6.33;;;;;47.98;19.82;100213.53;5029467;28;45350;-71
2022/09/05 09:05:20;;;;;;;;;6.67;5.67;;;;;47.71;19.95;100226.38;5017195;28;45375;-70
2022/09/05 09:07:59;;;;;;;;;8.00;7.33;;;;;47.42;19.51;100210.88;5017455;28;45619;-70
2022/09/05 09:10:45;;;;;;;;;5.33;5.00;;;;;47.45;20.36;100193.84;5014613;28;45556;-70
2022/09/05 09:13:58;;;;;;;;;5.33;5.00;;;;;47.62;19.53;100222.09;5002862;28;45411;-71
2022/09/05 09:16:40;;;;;;;;;5.33;4.00;;;;;47.30;19.88;100229.94;4977056;28;45540;-70
2022/09/05 09:19:17;;;;;;;;;5.67;5.33;;;;;47.73;19.55;100213.19;5017155;28;45508;-70
2022/09/05 09:22:11;;;;;;;;;5.33;5.33;;;;;48.09;19.86;100219.53;5016091;28;46293;-70
2022/09/05 09:24:45;;;;;;;;;6.33;5.00;;;;;48.30;19.19;100215.78;5016469;28;45458;-70
2022/09/05 09:27:38;;;;;;;;;7.00;5.33;;;;;48.44;17.96;100219.44;5014957;28;45408;-71
2022/09/05 09:30:05;;;;;;;;;3.67;3.00;;;;;48.45;17.97;100221.13;5027775;28;45650;-70
2022/09/05 09:32:44;;;;;;;;;6.00;4.33;;;;;48.33;17.84;100226.44;5014957;28;45547;-70
2022/09/05 09:35:42;;;;;;;;;6.00;5.67;;;;;48.40;18.11;100213.47;5012463;28;45613;-71
2022/09/05 09:38:19;;;;;;;;;5.33;5.00;;;;;48.65;17.51;100224.84;4973170;28;45669;-72
2022/09/05 09:41:04;;;;;;;;;6.67;6.33;;;;;48.83;17.92;100229.75;5015658;28;45649;-70
2022/09/05 09:44:06;;;;;;;;;6.33;6.00;;;;;49.16;17.61;100212.25;5015557;28;46420;-70
2022/09/05 09:46:44;;;;;;;;;5.00;5.00;;;;;49.04;16.93;100220.34;5035231;28;45477;-71
2022/09/05 09:49:29;;;;;;;;;5.00;4.00;;;;;49.13;17.68;100221.00;5012785;28;45489;-70
2022/09/05 09:52:03;;;;;;;;;4.00;4.00;;;;;49.37;17.19;100213.94;5013476;28;45465;-69
2022/09/05 09:54:53;;;;;;;;;7.00;7.00;;;;;49.40;17.47;100210.72;5011752;28;45562;-70
2022/09/05 09:57:28;;;;;;;;;6.67;5.33;;;;;49.30;16.86;100201.97;5011855;28;45406;-71
2022/09/05 10:00:11;;;;;;;;;5.33;4.33;;;;;49.18;17.32;100201.78;5013810;28;45588;-71
2022/09/05 10:02:55;;;;;;;;;6.67;5.67;;;;;49.45;16.34;100213.72;5010089;28;45877;-70
2022/09/05 10:05:42;;;;;;;;;4.00;4.00;;;;;49.16;17.13;100212.25;5009891;28;45836;-70
2022/09/05 10:08:16;;;;;;;;;6.33;4.67;;;;;48.94;16.41;100209.66;5011646;28;45423;-71
2022/09/05 10:11:16;;;;;;;;;5.67;5.67;;;;;48.47;17.10;100203.25;5013038;28;45629;-71
2022/09/05 10:13:53;;;;;;;;;7.00;7.00;;;;;48.20;17.40;100203.16;5013985;28;45523;-70
2022/09/05 10:16:43;;;;;;;;;8.33;6.67;;;;;48.39;17.57;100201.53;5010698;28;45650;-71
2022/09/05 10:19:43;;;;;;;;;9.33;7.33;;;;;48.22;17.80;100202.09;5014386;28;45536;-70
2022/09/05 10:22:21;;;;;;;;;5.33;5.33;;;;;48.24;18.39;100198.06;4999966;28;45416;-69
2022/09/05 10:25:09;;;;;;;;;6.00;5.33;;;;;48.05;17.55;100194.16;5017770;28;45284;-68
2022/09/05 10:28:10;;;;;;;;;6.00;5.00;;;;;47.53;18.68;100195.59;5028611;28;45469;-69
2022/09/05 10:30:44;;;;;;;;;8.67;8.67;;;;;47.45;18.56;100195.78;5004203;28;45483;-69
2022/09/05 10:33:35;;;;;;;;;6.33;5.33;;;;;47.04;18.55;100191.88;5016536;28;45449;-70
2022/09/05 10:36:06;;;;;;;;;7.00;6.67;;;;;46.94;18.77;100172.88;5018284;28;45336;-70
2022/09/05 10:38:43;;;;;;;;;4.33;4.33;;;;;46.78;18.78;100189.72;5015238;28;46208;-69
2022/09/05 10:41:12;;;;;;;;;5.67;5.67;;;;;46.35;18.56;100182.28;5007617;28;45459;-72
2022/09/05 10:43:51;;;;;;;;;4.00;4.00;;;;;46.06;19.50;100183.25;5016269;28;45339;-70
2022/09/05 10:47:10;;;;;;;;;3.67;3.00;;;;;45.31;19.62;100174.19;5012330;28;45425;-73
2022/09/05 10:49:48;;;;;;;;;4.67;4.67;;;;;44.20;20.79;100115.91;4973031;28;46302;-80
2022/09/05 10:52:35;;;;;;;;;6.33;6.33;;;;;43.91;21.53;100168.03;4957146;28;45418;-78
2022/09/05 10:55:24;;;;;;;;;5.33;5.33;;;;;43.25;22.43;100165.50;4995749;28;45470;-76
2022/09/05 10:58:34;;;;;;;;;6.00;5.00;;;;;42.54;21.77;100172.59;5014957;28;45565;-76
2022/09/05 11:01:13;;;;;;;;;4.33;4.00;;;;;41.63;23.16;100161.38;5023810;28;45705;-77
2022/09/05 11:03:46;;;;;;;;;5.00;5.00;;;;;41.32;23.51;100150.03;5019866;28;45453;-76
2022/09/05 11:06:18;;;;;;;;;4.00;4.00;;;;;41.00;23.91;100162.50;5014453;28;45804;-77
2022/09/05 11:08:57;;;;;;;;;4.33;4.00;;;;;40.89;23.43;100160.03;5015775;28;45443;-77
2022/09/05 11:11:25;;;;;;;;;5.33;5.00;;;;;40.59;23.75;100143.00;5015610;28;46270;-76
2022/09/05 11:13:54;;;;;;;;;4.67;4.33;;;;;40.51;24.60;100143.81;5015616;28;45237;-76
2022/09/05 11:16:24;;;;;;;;;5.33;5.00;;;;;40.46;23.88;100153.50;5016022;28;45591;-76
2022/09/05 11:18:56;;;;;;;;;5.00;5.00;;;;;40.07;24.93;100127.28;5014426;28;45514;-76
2022/09/05 11:21:26;;;;;;;;;5.67;4.67;;;;;39.86;24.45;100138.47;5030529;28;46831;-77
2022/09/05 11:24:26;;;;;;;;;4.33;4.33;;;;;39.57;24.83;100138.63;5029689;28;45289;-77
2022/09/05 11:27:04;;;;;;;;;6.67;5.67;;;;;39.47;25.36;100133.22;5003417;28;45562;-76
2022/09/05 11:30:01;;;;;;;;;5.00;4.67;;;;;39.10;25.12;100128.59;5014679;28;45253;-76
2022/09/05 11:33:04;;;;;;;;;5.00;5.00;;;;;38.40;26.05;100117.00;5012696;28;46943;-76
2022/09/05 11:36:02;;;;;;;;;5.33;5.00;;;;;38.25;25.34;100123.94;5027253;28;45452;-77
2022/09/05 11:38:52;;;;;;;;;4.67;3.67;;;;;38.09;25.32;100125.34;5010411;28;45255;-78
2022/09/05 11:41:48;;;;;;;;;5.33;4.67;;;;;37.99;26.00;100124.47;5013885;28;45660;-77
2022/09/05 11:44:35;;;;;;;;;5.67;4.67;;;;;37.96;26.15;100116.53;5013778;28;46124;-76
2022/09/05 11:47:32;;;;;;;;;3.00;3.00;;;;;37.69;26.18;100115.34;4999530;28;46213;-77
2022/09/05 11:50:52;;;;;;;;;5.00;4.00;;;;;37.33;26.81;100084.97;5015234;28;45391;-77
2022/09/05 11:53:21;;;;;;;;;4.00;4.00;;;;;37.31;26.92;100113.34;5005523;28;45734;-77
2022/09/05 11:55:55;;;;;;;;;2.33;1.67;;;;;37.28;26.00;100111.75;5030304;28;45543;-79
2022/09/05 11:58:49;;;;;;;;;4.33;4.33;;;;;37.19;26.16;100108.00;5031092;28;45391;-77
2022/09/05 12:01:24;;;;;;;;;3.33;3.00;;;;;37.01;26.98;100105.00;5017756;28;45435;-77
2022/09/05 12:04:23;;;;;;;;;8.00;6.67;;;;;37.10;27.22;100110.63;5016991;28;45687;-76
2022/09/05 12:07:26;;;;;;;;;3.67;3.67;;;;;37.02;26.45;100104.00;5004470;28;45891;-77
2022/09/05 12:10:10;;;;;;;;;6.33;5.00;;;;;36.88;26.35;100093.47;5016459;28;45662;-76
2022/09/05 12:13:14;;;;;;;;;4.00;4.00;;;;;36.73;25.97;100067.59;5005259;28;45529;-76
2022/09/05 12:15:45;;;;;;;;;5.00;4.00;;;;;36.91;25.54;100090.47;5017892;28;45234;-76
2022/09/05 12:18:14;;;;;;;;;4.00;4.00;;;;;36.97;25.53;100091.81;5014631;28;46533;-76
2022/09/05 12:21:11;;;;;;;;;3.67;3.00;;;;;37.08;25.18;100093.56;5023009;28;45499;-77
2022/09/05 12:23:42;;;;;;;;;4.67;4.33;;;;;37.07;24.99;100083.66;5030310;28;45505;-76
2022/09/05 12:26:31;;;;;;;;;4.00;4.00;;;;;37.02;25.42;100078.63;5017431;28;45615;-77
2022/09/05 12:29:04;;;;;;;;;2.00;2.00;;;;;36.89;25.29;100076.16;5023672;28;45328;-78
2022/09/05 12:31:43;;;;;;;;;2.67;2.67;;;;;36.72;24.47;100057.72;5016332;28;45602;-77
2022/09/05 12:34:17;;;;;;;;;4.33;4.33;;;;;36.72;24.05;100064.00;5028987;28;45555;-76
2022/09/05 12:36:49;;;;;;;;;4.00;3.67;;;;;36.74;24.48;100063.88;5017408;28;45677;-76